KSTL/STL METAR and TAF weather

Enter ICAO airport designator
Station Type Date Time Source
KSTL METAR 2021/03/02 13:51 UTC NOAA

KSTL 021351Z 14008KT 10SM FEW250 01/M03 A3034 RMK AO2 SLP281 T00111028


Station Type Date Time Source
KSTL Decoded METAR 2021/03/02 13:51 UTC NOAA

LAMBERT-ST LOUIS INTERNATIONAL AIRPORT , MO, United States (KSTL) 38-45N 90-22W 171M
Mar 02, 2021 - 08:51 AM EST / 2021.03.02 1351 UTC
Wind: from the SE (140 degrees) at 9 MPH (8 KT):0
Visibility: 10 mile(s):0
Sky conditions: mostly clear
Temperature: 34.0 F (1.1 C)
Windchill: 26 F (-3 C):1
Dew Point: 27.0 F (-2.8 C)
Relative Humidity: 75%
Pressure (altimeter): 30.34 in. Hg (1027 hPa)
ob: KSTL 021351Z 14008KT 10SM FEW250 01/M03 A3034 RMK AO2 SLP281 T00111028
cycle: 14

Station Type Date Time Source
KSTL TAF 2021/03/02 12:22 UTC NOAA

TAF KSTL 021120Z 0212/0318 VRB04KT P6SM SKC
FM021400 15005KT P6SM SKC
FM021800 20010KT P6SM SKC
FM030100 19006KT P6SM SKC

Example: see airport list